Charlevoix, MI

1:55 AM EST on December 18, 2014 (GMT -0500)
Pellston Regional Airport Of Emmet County | Change Station
CLOSE
Current Station
Airport
Location: Pellston,
Elevation: 719 ft
Nearby Weather Stations

Elev 719 ft 45.57 °N, 84.80 °W | Updated 40 minutes ago

Overcast
Overcast
23 °F
Feels Like 15 °F
N
7
Wind Variable Wind from NNW

Today
High -- | Low -- °F
--% Chance of Precip.
Yesterday
High -- | Low -- °F
Precip. -- in
8:15 AM 4:59 PM
Waning Crescent, 16% visible
Pressure 30.15 in
Visibility 10.0 miles
Clouds Mostly Cloudy 1600 ft
Overcast 5500 ft
Windchill 15 °F
Dew Point 19 °F
Humidity 85%
Rainfall 0.00 in
Snow Depth Not available.
UV 0 out of 12
Pollen .10 out of 12
Air Quality Not available.
Flu Activity Not available.
SPECI KPLN 180615Z AUTO 34006KT 10SM BKN016 OVC055 M05/M07 A3015 RMK AO2 T10501072

More Conditions Fewer Conditions

Pressure 30.15 in
Visibility 10.0 miles
Clouds Mostly Cloudy 1600 ft
Overcast 5500 ft
Windchill 15 °F
Dew Point 19 °F
Humidity 85%
Rainfall 0.00 in
Snow Depth Not available.
UV 0 out of 12
Pollen .10 out of 12
Air Quality Not available.
Flu Activity Not available.
SPECI KPLN 180615Z AUTO 34006KT 10SM BKN016 OVC055 M05/M07 A3015 RMK AO2 T10501072

More Conditions Fewer Conditions

Nowcast | as of 1:00 am EST on December 18, 2014

At 2 am...cloudy. Scattered snow showers. Temperature 25. North winds 15 mph. At 4 am...mostly cloudy. Chance of flurries. Temperature 25. North winds 14 mph. At 6 am...mostly cloudy. Chance of flurries. Temperature 24. North winds 13 mph.

×

10-Day Weather Forecast

Almanac

Astronomy

Dec. 18, 2014 Rise Set
Actual Time
Civil Twilight
Nautical Twilight
Astronomical Twilight
Moon
Length of Visible Light
Length of Day
Tomorrow will be .
, % of the Moon is Illuminated

Today's Extremes

State Highs State Lows

Community

WunderPhotos

Upload Photos

1,778,897 photos uploaded!

WunderBlogs® & News

Nearby

Air Quality

  Air Quality AQ Index Pollutant
Not available.

Snow Depth

Station Depth Elevation

Earthquake Activity

City Distance Mag. Time & Date
Minimum magnitude displayed is 2.5.

Coastal Water Temperatures

Place Temperature

Nearby Weather Stations